createdAt,value
2022-10-17T00:04:16.648Z,1.20
2022-10-17T00:09:22.179Z,0.93
2022-10-17T00:14:27.704Z,1.20
2022-10-17T00:19:33.065Z,1.13
2022-10-17T00:24:38.586Z,0.90
2022-10-17T00:29:44.060Z,1.27
2022-10-17T00:34:49.514Z,1.23
2022-10-17T00:39:56.129Z,1.40
2022-10-17T00:45:04.624Z,1.30
2022-10-17T00:50:12.242Z,1.10
2022-10-17T00:55:29.908Z,1.20
2022-10-17T01:00:37.072Z,1.53
2022-10-17T01:05:43.850Z,1.20
2022-10-17T01:11:13.573Z,1.00
2022-10-17T01:16:25.017Z,1.33
2022-10-17T01:21:48.287Z,1.10
2022-10-17T01:27:19.333Z,1.27
2022-10-17T01:32:28.733Z,1.37
2022-10-17T01:37:46.330Z,1.03
2022-10-17T01:43:01.671Z,1.10
2022-10-17T01:48:10.574Z,1.20
2022-10-17T01:53:21.911Z,1.20
2022-10-17T01:58:31.770Z,1.57
2022-10-17T02:03:38.439Z,1.10
2022-10-17T02:08:46.727Z,1.13
2022-10-17T02:14:07.336Z,1.13
2022-10-17T02:19:47.524Z,1.20
2022-10-17T02:24:57.720Z,1.40
2022-10-17T02:30:18.243Z,1.30
2022-10-17T02:35:26.240Z,1.50
2022-10-17T02:40:32.997Z,1.20
2022-10-17T02:45:39.956Z,1.40
2022-10-17T02:50:48.479Z,1.10
2022-10-17T02:55:57.066Z,1.40
2022-10-17T03:01:03.011Z,1.60
2022-10-17T03:06:09.583Z,1.10
2022-10-17T03:11:15.103Z,1.30
2022-10-17T03:16:20.751Z,1.27
2022-10-17T03:21:26.602Z,1.73
2022-10-17T03:26:33.289Z,1.20
2022-10-17T03:31:38.877Z,1.10
2022-10-17T03:36:44.947Z,1.17
2022-10-17T03:41:50.960Z,1.70
2022-10-17T03:46:56.642Z,1.80
2022-10-17T03:52:02.268Z,1.43
2022-10-17T03:57:08.207Z,1.50
2022-10-17T04:02:14.216Z,1.80
2022-10-17T04:07:20.138Z,1.70
2022-10-17T04:12:27.066Z,1.80
2022-10-17T04:17:37.291Z,1.80
2022-10-17T04:22:41.533Z,2.00
2022-10-17T04:27:49.141Z,1.53
2022-10-17T04:32:56.209Z,2.00
2022-10-17T04:38:01.838Z,1.90
2022-10-17T04:43:07.573Z,1.90
2022-10-17T04:48:13.996Z,1.93
2022-10-17T04:53:20.601Z,2.53
2022-10-17T04:58:28.454Z,1.80
2022-10-17T05:03:34.823Z,1.93
2022-10-17T05:08:40.900Z,1.90
2022-10-17T05:13:48.128Z,1.97
2022-10-17T05:18:55.723Z,1.83
2022-10-17T05:24:01.310Z,2.00
2022-10-17T05:29:07.391Z,2.40
2022-10-17T05:34:14.636Z,1.80
2022-10-17T05:39:20.699Z,2.27
2022-10-17T05:44:26.793Z,2.40
2022-10-17T05:49:45.174Z,2.87
2022-10-17T05:54:42.578Z,2.30
2022-10-17T05:59:49.510Z,3.20
2022-10-17T06:04:56.601Z,3.33
2022-10-17T06:10:02.674Z,3.13
2022-10-17T06:15:23.631Z,3.50
2022-10-17T06:20:30.690Z,3.63
2022-10-17T06:25:37.555Z,3.80
2022-10-17T06:30:43.506Z,3.60
2022-10-17T06:35:54.757Z,4.30
2022-10-17T06:41:10.803Z,4.13
2022-10-17T06:46:17.915Z,3.90
2022-10-17T06:51:25.056Z,4.03
2022-10-17T06:56:32.318Z,4.33
2022-10-17T07:01:41.816Z,3.30
2022-10-17T07:06:47.116Z,2.80
2022-10-17T07:11:57.302Z,3.23
2022-10-17T07:17:03.552Z,2.70
2022-10-17T07:22:11.152Z,2.93
2022-10-17T07:27:18.302Z,3.43
2022-10-17T07:32:25.393Z,3.13
2022-10-17T07:37:32.099Z,3.57
2022-10-17T07:47:44.962Z,3.50
2022-10-17T07:52:52.112Z,3.60
2022-10-17T07:58:00.668Z,3.53
2022-10-17T08:03:06.451Z,4.00
2022-10-17T08:08:11.912Z,4.90
2022-10-17T08:13:17.386Z,4.90
2022-10-17T08:18:23.015Z,4.70
2022-10-17T08:23:30.073Z,4.73
2022-10-17T08:28:37.978Z,4.63
2022-10-17T08:33:44.015Z,4.90
2022-10-17T08:38:52.767Z,5.40
2022-10-17T08:44:12.229Z,5.60
2022-10-17T08:49:40.423Z,6.13
2022-10-17T08:54:49.224Z,5.93
2022-10-17T08:59:56.873Z,5.37
2022-10-17T09:05:26.600Z,6.13
2022-10-17T09:10:46.517Z,6.27
2022-10-17T09:16:04.010Z,6.87
2022-10-17T09:21:30.372Z,7.33
2022-10-17T09:26:36.367Z,7.37
2022-10-17T09:31:47.583Z,7.20
2022-10-17T09:36:54.017Z,6.50
2022-10-17T09:42:01.708Z,7.50
2022-10-17T09:47:24.930Z,6.87
2022-10-17T09:52:50.790Z,7.43
2022-10-17T09:57:59.218Z,7.23
2022-10-17T10:03:22.209Z,6.77
2022-10-17T10:08:34.024Z,7.43
2022-10-17T10:13:39.643Z,7.93
2022-10-17T10:18:47.548Z,7.67
2022-10-17T10:24:02.574Z,7.40
2022-10-17T10:29:29.185Z,6.37
2022-10-17T10:34:36.207Z,6.70
2022-10-17T10:39:44.717Z,7.10
2022-10-17T10:44:52.120Z,7.00
2022-10-17T10:50:03.435Z,7.27
2022-10-17T10:55:23.911Z,6.43
2022-10-17T11:00:32.128Z,6.30
2022-10-17T11:06:03.168Z,7.07
2022-10-17T11:11:19.123Z,5.97
2022-10-17T11:16:42.881Z,6.87
2022-10-17T11:21:52.980Z,5.50
2022-10-17T11:27:06.873Z,6.07
2022-10-17T11:32:36.550Z,7.90
2022-10-17T11:37:48.322Z,6.23
2022-10-17T11:43:17.176Z,6.43
2022-10-17T11:48:31.458Z,6.23
2022-10-17T11:53:45.835Z,6.57
2022-10-17T11:59:00.086Z,5.57
2022-10-17T12:04:28.087Z,5.80
2022-10-17T12:09:51.281Z,5.30
2022-10-17T12:15:16.363Z,6.03
2022-10-17T12:20:27.738Z,6.27
2022-10-17T12:25:38.073Z,6.10
2022-10-17T12:31:06.049Z,5.80
2022-10-17T12:36:22.927Z,5.60
2022-10-17T12:41:44.965Z,6.00
2022-10-17T12:46:52.756Z,5.97
2022-10-17T12:52:18.891Z,6.10
2022-10-17T12:57:30.766Z,5.83
2022-10-17T13:02:37.516Z,6.00
2022-10-17T13:07:46.150Z,5.00
2022-10-17T13:12:54.268Z,6.47
2022-10-17T13:18:01.640Z,6.10
2022-10-17T13:23:07.083Z,5.47
2022-10-17T13:28:14.267Z,5.90
2022-10-17T13:33:34.605Z,6.00
2022-10-17T13:38:42.595Z,5.53
2022-10-17T13:43:47.624Z,5.73
2022-10-17T13:48:53.628Z,6.10
2022-10-17T13:53:59.060Z,6.03
2022-10-17T13:59:07.481Z,6.30
2022-10-17T14:04:19.774Z,5.97
2022-10-17T14:09:28.909Z,6.00
2022-10-17T14:14:58.112Z,6.47
2022-10-17T14:19:42.273Z,5.90
2022-10-17T14:24:48.196Z,5.53
2022-10-17T14:29:55.676Z,6.10
2022-10-17T14:35:24.390Z,5.80
2022-10-17T14:40:28.101Z,5.67
2022-10-17T14:45:36.688Z,6.40
2022-10-17T14:56:01.084Z,6.40
2022-10-17T15:01:06.984Z,6.37
2022-10-17T15:06:33.320Z,7.90
2022-10-17T15:11:39.716Z,7.30
2022-10-17T15:16:45.180Z,7.67
2022-10-17T15:21:50.578Z,7.20
2022-10-17T15:26:56.682Z,7.40
2022-10-17T15:32:02.159Z,8.40
2022-10-17T15:37:10.202Z,7.17
2022-10-17T15:42:15.567Z,7.43
2022-10-17T15:47:34.506Z,7.10
2022-10-17T15:52:41.519Z,7.57
2022-10-17T15:57:48.950Z,7.63
2022-10-17T16:02:54.413Z,7.70
2022-10-17T16:07:59.893Z,7.37
2022-10-17T16:13:05.279Z,7.07
2022-10-17T16:18:10.878Z,7.20
2022-10-17T16:23:16.436Z,6.73
2022-10-17T16:28:22.040Z,6.40
2022-10-17T16:33:27.682Z,6.17
2022-10-17T16:38:33.142Z,6.43
2022-10-17T16:43:38.600Z,6.40
2022-10-17T16:48:45.750Z,6.07
2022-10-17T16:53:54.529Z,5.37
2022-10-17T16:59:01.434Z,5.53
2022-10-17T17:04:08.606Z,6.00
2022-10-17T17:09:14.322Z,6.27
2022-10-17T17:14:19.777Z,6.13
2022-10-17T17:19:25.747Z,5.57
2022-10-17T17:24:31.441Z,5.60
2022-10-17T17:29:38.083Z,6.07
2022-10-17T17:34:43.607Z,5.63
2022-10-17T17:39:49.210Z,6.47
2022-10-17T17:44:54.762Z,5.83
2022-10-17T17:50:00.316Z,6.13
2022-10-17T17:55:06.355Z,5.63
2022-10-17T18:00:12.846Z,6.50
2022-10-17T18:05:18.549Z,6.00
2022-10-17T18:10:24.267Z,5.97
2022-10-17T18:15:29.872Z,5.27
2022-10-17T18:20:36.318Z,6.10
2022-10-17T18:25:41.925Z,5.77
2022-10-17T18:30:47.397Z,6.30
2022-10-17T18:35:55.957Z,6.43
2022-10-17T18:41:17.912Z,6.80
2022-10-17T18:46:25.841Z,5.60
2022-10-17T18:51:31.290Z,5.90
2022-10-17T18:56:36.863Z,5.70
2022-10-17T19:01:43.811Z,5.80
2022-10-17T19:06:49.432Z,5.30
2022-10-17T19:11:55.427Z,5.33
2022-10-17T19:17:01.937Z,5.33
2022-10-17T19:22:08.436Z,5.47
2022-10-17T19:27:13.967Z,5.43
2022-10-17T19:32:22.838Z,5.20
2022-10-17T19:37:27.191Z,5.20
2022-10-17T19:42:33.563Z,5.43
2022-10-17T19:47:40.004Z,5.83
2022-10-17T19:52:45.728Z,4.87
2022-10-17T19:57:51.179Z,5.63
2022-10-17T20:02:56.937Z,5.47
2022-10-17T20:08:03.166Z,5.17
2022-10-17T20:13:09.145Z,5.87
2022-10-17T20:18:14.689Z,5.23
2022-10-17T20:23:21.747Z,5.43
2022-10-17T20:28:28.052Z,5.07
2022-10-17T20:33:33.659Z,5.30
2022-10-17T20:38:39.577Z,4.70
2022-10-17T20:43:45.778Z,4.73
2022-10-17T20:48:55.313Z,4.67
2022-10-17T20:54:00.972Z,5.60
2022-10-17T20:59:09.729Z,4.83
2022-10-17T21:04:44.215Z,4.97
2022-10-17T21:09:23.089Z,4.37
2022-10-17T21:14:28.543Z,4.10
2022-10-17T21:19:34.336Z,4.70
2022-10-17T21:24:39.781Z,4.57
2022-10-17T21:29:45.781Z,4.17
2022-10-17T21:34:51.294Z,3.93
2022-10-17T21:39:56.831Z,4.40
2022-10-17T21:45:07.441Z,4.50
2022-10-17T21:50:10.512Z,5.17
2022-10-17T21:55:16.037Z,4.87
2022-10-17T22:00:21.558Z,5.33
2022-10-17T22:05:27.030Z,5.17
2022-10-17T22:10:32.494Z,4.80
2022-10-17T22:15:38.016Z,4.57
2022-10-17T22:20:43.648Z,5.80
2022-10-17T22:25:57.035Z,5.17
2022-10-17T22:31:02.961Z,4.40
2022-10-17T22:36:09.942Z,4.33
2022-10-17T22:41:15.829Z,4.60
2022-10-17T22:46:21.368Z,4.63
2022-10-17T22:51:26.894Z,4.37
2022-10-17T22:56:32.414Z,4.10
2022-10-17T23:01:37.955Z,3.63
2022-10-17T23:06:43.443Z,3.40
2022-10-17T23:11:48.974Z,3.30
2022-10-17T23:16:54.491Z,3.40
2022-10-17T23:22:00.021Z,3.57
2022-10-17T23:27:05.552Z,2.97
2022-10-17T23:32:11.016Z,3.10
2022-10-17T23:37:16.465Z,2.50
2022-10-17T23:42:21.974Z,3.37
2022-10-17T23:47:27.644Z,2.93
2022-10-17T23:52:33.792Z,3.10
2022-10-17T23:57:39.328Z,3.17
